Weather at Belaga Airport

Public forecast

Using degrees Celsius for public forecast. Weather courtesy of forecast.io.

Closest aviation weather report (METAR) to Belaga Airport

Report is more than 2 hours old.

Closest report is Bintulu Airport, 53.1 nm (98.3 km) WNW. Retrieved 2021/10/25 14:00 UTC (2 hours ago):

WBGB 251400Z VRB01KT 9999 FEW016 25/24 Q1009

Closest aviation forecast (TAF) to Belaga Airport

Closest forecast is Bintulu Airport, 53.1 nm (98.3 km) WNW. Retrieved 2021/10/25 12:00 UTC (4 hours ago):

TAF WBGB 251100Z 2512/2612 VRB03KT 9999 SCT016 TEMPO 2607/2610 30008KT 5000 TSRA FEW015CB